Time;durP1;ratioP1;P1;durP2;ratioP2;P2;SDS_P1;SDS_P2;PMS_P1;PMS_P2;Temp;Humidity;BMP_temperature;BMP_pressure;BME280_temperature;BME280_humidity;BME280_pressure;Samples;Min_cycle;Max_cycle;Signal;HPM_P1;HPM_P2
2022/11/01 00:01:35;;;;;;;0.70;0.70;;;;;;;15.85;100.00;100786.75;5078490;28;20206;-73
2022/11/01 00:04:02;;;;;;;0.80;0.80;;;;;;;15.68;100.00;100775.34;5078176;28;20202;-73
2022/11/01 00:06:28;;;;;;;0.70;0.70;;;;;;;15.73;100.00;100778.88;5078104;28;20268;-73
2022/11/01 00:08:57;;;;;;;0.90;0.90;;;;;;;15.84;100.00;100782.38;5074859;28;20191;-73
2022/11/01 00:11:23;;;;;;;0.70;0.70;;;;;;;15.61;100.00;100769.22;5077862;28;20261;-73
2022/11/01 00:13:50;;;;;;;1.08;1.08;;;;;;;15.72;100.00;100783.22;5085270;28;20199;-73
2022/11/01 00:16:19;;;;;;;0.70;0.70;;;;;;;15.82;100.00;100778.91;5077554;28;20674;-73
2022/11/01 00:18:46;;;;;;;1.25;1.17;;;;;;;15.35;100.00;100708.91;5076766;28;21053;-73
2022/11/01 00:21:14;;;;;;;1.00;1.00;;;;;;;15.81;100.00;100775.41;5076584;28;20198;-73
2022/11/01 00:23:41;;;;;;;0.73;0.73;;;;;;;15.79;100.00;100778.88;5079397;28;20228;-73
2022/11/01 00:26:14;;;;;;;0.70;0.70;;;;;;;15.88;100.00;100781.53;5077390;28;20241;-73
2022/11/01 00:28:41;;;;;;;1.17;1.17;;;;;;;15.69;100.00;100774.47;5076372;28;20945;-73
2022/11/01 00:31:08;;;;;;;0.60;0.60;;;;;;;15.68;100.00;100780.56;5079111;28;20207;-73
2022/11/01 00:33:34;;;;;;;0.70;0.70;;;;;;;15.62;100.00;100785.78;5076926;28;20206;-73
2022/11/01 00:36:02;;;;;;;0.80;0.80;;;;;;;15.37;100.00;100732.44;5077722;28;20198;-73
2022/11/01 00:38:29;;;;;;;0.73;0.73;;;;;;;15.56;100.00;100772.66;5076257;28;20206;-73
2022/11/01 00:40:56;;;;;;;0.80;0.80;;;;;;;15.53;100.00;100780.47;5077455;28;20203;-73
2022/11/01 00:43:24;;;;;;;0.90;0.90;;;;;;;15.58;100.00;100784.00;5078041;28;20210;-73
2022/11/01 00:45:51;;;;;;;0.70;0.70;;;;;;;15.49;100.00;100783.94;5076757;28;20651;-73
2022/11/01 00:48:18;;;;;;;0.70;0.70;;;;;;;15.40;100.00;100782.13;5074393;28;20606;-73
2022/11/01 00:50:45;;;;;;;0.90;0.90;;;;;;;15.32;100.00;100781.19;5079284;28;20308;-73
2022/11/01 00:53:12;;;;;;;0.80;0.80;;;;;;;15.37;100.00;100777.72;5079246;28;20622;-73
2022/11/01 00:55:39;;;;;;;1.05;1.05;;;;;;;15.19;100.00;100769.78;5077447;28;20205;-73
2022/11/01 00:58:07;;;;;;;0.90;0.90;;;;;;;15.26;100.00;100781.16;5077108;28;20205;-73
2022/11/01 01:00:36;;;;;;;0.70;0.70;;;;;;;15.32;100.00;100778.56;5077737;28;20432;-73
2022/11/01 01:03:03;;;;;;;0.60;0.60;;;;;;;15.19;100.00;100779.34;5058043;28;20202;-73
2022/11/01 01:05:30;;;;;;;0.80;0.80;;;;;;;15.06;100.00;100774.88;5076404;28;20793;-73
2022/11/01 01:07:57;;;;;;;0.70;0.70;;;;;;;14.96;100.00;100757.38;5078198;28;20213;-73
2022/11/01 01:10:24;;;;;;;0.70;0.70;;;;;;;14.92;100.00;100745.16;5075105;28;20195;-73
2022/11/01 01:12:50;;;;;;;0.80;0.80;;;;;;;15.00;100.00;100770.50;5080001;28;20290;-73
2022/11/01 01:15:18;;;;;;;0.80;0.80;;;;;;;15.03;100.00;100777.47;5079987;28;20661;-73
2022/11/01 01:17:46;;;;;;;0.90;0.90;;;;;;;15.02;100.00;100767.91;5073789;28;20195;-73
2022/11/01 01:20:13;;;;;;;5.60;2.78;;;;;;;14.99;100.00;100787.00;5076428;28;20194;-73
2022/11/01 01:22:41;;;;;;;0.70;0.70;;;;;;;14.85;100.00;100765.13;5075024;28;20283;-73
2022/11/01 01:25:08;;;;;;;0.80;0.80;;;;;;;14.92;100.00;100782.59;5075901;28;20249;-73
2022/11/01 01:27:35;;;;;;;0.70;0.70;;;;;;;14.86;100.00;100785.16;5079114;28;20240;-73
2022/11/01 01:30:02;;;;;;;0.90;0.90;;;;;;;14.75;100.00;100763.31;5075181;28;20218;-73
2022/11/01 01:32:29;;;;;;;0.73;0.73;;;;;;;14.75;100.00;100771.16;5077509;28;20206;-73
2022/11/01 01:34:57;;;;;;;0.80;0.80;;;;;;;14.91;100.00;100778.22;5073986;28;20195;-73
2022/11/01 01:37:24;;;;;;;0.70;0.70;;;;;;;14.72;100.00;100782.44;5081362;28;20213;-73
2022/11/01 01:39:51;;;;;;;0.90;0.90;;;;;;;14.71;100.00;100783.28;5055737;28;20199;-73
2022/11/01 01:42:29;;;;;;;0.80;0.80;;;;;;;14.89;100.00;100782.59;5077420;28;20222;-73
2022/11/01 01:45:28;;;;;;;0.80;0.80;;;;;;;14.83;100.00;100777.31;5078878;28;20646;-73
2022/11/01 01:47:59;;;;;;;0.85;0.85;;;;;;;14.69;100.00;100778.94;5075411;28;20226;-73
2022/11/01 01:50:32;;;;;;;0.70;0.70;;;;;;;14.61;100.00;100775.34;5074212;28;20222;-73
2022/11/01 01:53:03;;;;;;;0.70;0.70;;;;;;;14.66;100.00;100792.81;5078695;28;20193;-73
2022/11/01 01:55:35;;;;;;;1.10;1.10;;;;;;;14.47;100.00;100762.19;5056613;28;20186;-73
2022/11/01 01:58:02;;;;;;;0.93;0.93;;;;;;;14.46;100.00;100783.91;5075004;28;20682;-73
2022/11/01 02:00:29;;;;;;;0.70;0.70;;;;;;;14.47;100.00;100795.22;5075254;28;20194;-73
2022/11/01 02:02:56;;;;;;;0.90;0.90;;;;;;;13.90;100.00;100708.50;5074807;28;20202;-73
2022/11/01 02:05:33;;;;;;;0.73;0.73;;;;;;;14.54;100.00;100797.03;5041208;28;20206;-73
2022/11/01 02:08:01;;;;;;;0.80;0.80;;;;;;;13.92;100.00;100729.34;5076184;28;20197;-73
2022/11/01 02:10:29;;;;;;;0.70;0.70;;;;;;;14.28;100.00;100808.03;5075446;28;20282;-73
2022/11/01 02:12:56;;;;;;;0.68;0.68;;;;;;;14.24;100.00;100801.03;5080418;28;20189;-73
2022/11/01 02:15:28;;;;;;;0.80;0.80;;;;;;;14.11;100.00;100767.84;5076709;28;20557;-73
2022/11/01 02:18:18;;;;;;;0.80;0.80;;;;;;;14.24;100.00;100777.53;5074532;28;20603;-73
2022/11/01 02:21:21;;;;;;;0.82;0.82;;;;;;;14.30;100.00;100798.47;5037500;28;20237;-73
2022/11/01 02:24:22;;;;;;;0.70;0.70;;;;;;;14.30;100.00;100813.28;5009229;28;20223;-73
2022/11/01 02:27:01;;;;;;;0.80;0.80;;;;;;;14.18;100.00;100814.00;5018247;28;20218;-73
2022/11/01 02:30:01;;;;;;;0.80;0.80;;;;;;;14.18;100.00;100813.13;5028400;28;20215;-73
2022/11/01 02:32:37;;;;;;;0.80;0.80;;;;;;;14.11;100.00;100812.19;4969949;28;20213;-73
2022/11/01 02:35:09;;;;;;;0.80;0.80;;;;;;;13.65;100.00;100736.84;4953753;28;20202;-73
2022/11/01 02:37:42;;;;;;;0.70;0.70;;;;;;;14.09;100.00;100807.81;4935262;28;20230;-73
2022/11/01 02:40:14;;;;;;;0.80;0.80;;;;;;;14.07;100.00;100805.16;4935103;28;20290;-73
2022/11/01 02:42:44;;;;;;;0.90;0.90;;;;;;;14.03;100.00;100808.59;4932841;29;20219;-73
2022/11/01 02:45:26;;;;;;;0.65;0.65;;;;;;;14.03;100.00;100808.59;4934730;28;20206;-73
2022/11/01 02:47:56;;;;;;;1.23;1.23;;;;;;;14.05;100.00;100812.09;4936319;28;20710;-73
2022/11/01 02:50:25;;;;;;;0.70;0.70;;;;;;;13.91;100.00;100790.19;4936228;28;20238;-73
2022/11/01 02:52:52;;;;;;;1.50;1.45;;;;;;;13.98;100.00;100812.88;4934794;28;20211;-73
2022/11/01 02:55:29;;;;;;;0.70;0.70;;;;;;;14.00;100.00;100812.88;4932602;29;20222;-73
2022/11/01 02:57:58;;;;;;;0.60;0.60;;;;;;;13.97;100.00;100807.63;4934687;28;20314;-73
2022/11/01 03:00:27;;;;;;;0.90;0.90;;;;;;;13.88;100.00;100803.16;4954147;28;20309;-73
2022/11/01 03:03:11;;;;;;;0.80;0.80;;;;;;;14.08;100.00;100825.19;5010794;28;20204;-73
2022/11/01 03:05:47;;;;;;;0.80;0.80;;;;;;;13.61;100.00;100753.28;5015081;28;20204;-73
2022/11/01 03:08:18;;;;;;;0.70;0.70;;;;;;;14.03;100.00;100829.44;5011298;28;20269;-73
2022/11/01 03:10:51;;;;;;;0.88;0.88;;;;;;;13.98;100.00;100823.31;5072086;28;20207;-73
2022/11/01 03:13:31;;;;;;;0.75;0.75;;;;;;;14.01;100.00;100825.97;5078020;28;20669;-74
2022/11/01 03:16:05;;;;;;;0.80;0.80;;;;;;;13.85;100.00;100785.75;5075284;28;20260;-73
2022/11/01 03:18:36;;;;;;;1.00;1.00;;;;;;;14.08;100.00;100816.47;5074027;28;20186;-73
2022/11/01 03:21:14;;;;;;;0.80;0.80;;;;;;;14.00;100.00;100816.38;5073101;28;20631;-73
2022/11/01 03:23:47;;;;;;;0.60;0.60;;;;;;;13.95;100.00;100836.28;5074055;28;20431;-73
2022/11/01 03:26:17;;;;;;;0.80;0.80;;;;;;;13.91;100.00;100824.94;5022768;28;20279;-73
2022/11/01 03:28:49;;;;;;;0.82;0.82;;;;;;;13.75;100.00;100812.56;5039059;28;20207;-73
2022/11/01 03:31:19;;;;;;;0.80;0.80;;;;;;;13.89;100.00;100823.19;5074834;28;20793;-73
2022/11/01 03:33:52;;;;;;;0.80;0.80;;;;;;;13.86;100.00;100833.56;5074498;28;20198;-73
2022/11/01 03:36:21;;;;;;;0.80;0.80;;;;;;;13.79;100.00;100831.72;5070078;28;20209;-73
2022/11/01 03:38:54;;;;;;;0.80;0.80;;;;;;;13.86;100.00;100833.56;5076246;28;20209;-73
2022/11/01 03:41:25;;;;;;;0.80;0.80;;;;;;;13.79;100.00;100835.22;5032894;28;20188;-73
2022/11/01 03:43:54;;;;;;;0.70;0.70;;;;;;;13.76;100.00;100826.47;5031671;28;20211;-72
2022/11/01 03:46:21;;;;;;;0.80;0.80;;;;;;;13.70;100.00;100834.19;5033567;28;20203;-73
2022/11/01 03:48:49;;;;;;;0.70;0.70;;;;;;;13.82;100.00;100829.16;5032073;28;20206;-73
2022/11/01 03:51:15;;;;;;;0.70;0.70;;;;;;;13.52;100.00;100793.09;5034127;28;20224;-73
2022/11/01 03:53:42;;;;;;;0.80;0.80;;;;;;;13.63;100.00;100819.31;5028906;28;20580;-72
2022/11/01 03:56:09;;;;;;;0.80;0.80;;;;;;;13.64;100.00;100824.56;5030647;28;20214;-73
2022/11/01 03:58:42;;;;;;;1.38;1.38;;;;;;;13.67;100.00;100836.75;5031662;28;20204;-72
2022/11/01 04:01:10;;;;;;;0.80;0.80;;;;;;;13.49;100.00;100802.63;5032088;28;20200;-72
2022/11/01 04:03:37;;;;;;;0.77;0.77;;;;;;;13.63;100.00;100828.03;5034872;28;20208;-72
2022/11/01 04:06:06;;;;;;;0.80;0.80;;;;;;;13.69;100.00;100827.25;5054622;28;20199;-72
2022/11/01 04:08:33;;;;;;;0.63;0.63;;;;;;;13.87;100.00;100780.59;5076134;28;20535;-69
2022/11/01 04:11:00;;;;;;;0.70;0.70;;;;;;;14.15;100.00;100811.34;5070339;28;20874;-72
2022/11/01 04:13:27;;;;;;;0.60;0.60;;;;;;;13.98;100.00;100812.88;5075382;28;20195;-72
2022/11/01 04:21:26;;;;;;;0.70;0.70;;;;;;;14.29;100.00;100828.06;5073764;28;21534;-72
2022/11/01 04:23:52;;;;;;;1.10;1.10;;;;;;;13.99;100.00;100835.47;5048887;28;20194;-73
2022/11/01 04:26:21;;;;;;;0.70;0.70;;;;;;;13.97;100.00;100836.31;5075512;28;20195;-72
2022/11/01 04:28:56;;;;;;;0.70;0.70;;;;;;;13.75;100.00;100835.16;5075493;28;20198;-72
2022/11/01 04:31:24;;;;;;;0.80;0.80;;;;;;;13.89;100.00;100836.22;5076896;28;20225;-72
2022/11/01 04:33:51;;;;;;;0.80;0.80;;;;;;;13.74;100.00;100831.66;5078841;28;20694;-72
2022/11/01 04:36:18;;;;;;;0.73;0.73;;;;;;;13.56;100.00;100833.13;5075107;28;20218;-72
2022/11/01 04:38:48;;;;;;;0.80;0.80;;;;;;;13.79;100.00;100831.72;5078870;28;20809;-73
2022/11/01 04:41:16;;;;;;;0.70;0.70;;;;;;;13.84;100.00;100822.25;5079361;28;20609;-71
2022/11/01 04:43:43;;;;;;;0.70;0.70;;;;;;;13.75;100.00;100835.16;5080951;28;20294;-71
2022/11/01 04:46:10;;;;;;;0.80;0.80;;;;;;;13.67;100.00;100828.94;5071679;28;20217;-71
2022/11/01 04:48:37;;;;;;;0.70;0.70;;;;;;;13.60;100.00;100832.31;5075576;28;20226;-71
2022/11/01 04:51:04;;;;;;;0.70;0.70;;;;;;;13.60;100.00;100841.00;5073493;28;20998;-71
2022/11/01 04:53:30;;;;;;;0.70;0.70;;;;;;;13.56;100.00;100835.72;5073989;28;20210;-71
2022/11/01 04:55:59;;;;;;;0.70;0.70;;;;;;;13.61;100.00;100824.53;5076286;28;20203;-74
2022/11/01 04:58:25;;;;;;;0.80;0.80;;;;;;;13.48;100.00;100827.81;5073787;28;20194;-74
2022/11/01 05:00:52;;;;;;;0.90;0.90;;;;;;;13.54;100.00;100843.53;5039082;28;20198;-72
2022/11/01 05:03:19;;;;;;;0.70;0.70;;;;;;;13.52;100.00;100845.22;5078361;28;20667;-71
2022/11/01 05:05:45;;;;;;;0.88;0.88;;;;;;;13.53;100.00;100843.50;5077583;28;20619;-72
2022/11/01 05:08:13;;;;;;;0.90;0.90;;;;;;;13.59;100.00;100846.22;5074775;28;20646;-72
2022/11/01 05:10:42;;;;;;;0.70;0.70;;;;;;;13.60;100.00;100850.56;5076994;28;20947;-72
2022/11/01 05:13:11;;;;;;;0.80;0.80;;;;;;;13.60;100.00;100847.94;5062119;28;20850;-72
2022/11/01 05:15:38;;;;;;;0.80;0.80;;;;;;;13.51;100.00;100842.63;5075244;28;20199;-71
2022/11/01 05:18:05;;;;;;;0.80;0.80;;;;;;;13.45;100.00;100821.69;5040848;28;20251;-72
2022/11/01 05:20:32;;;;;;;0.70;0.70;;;;;;;13.47;100.00;100835.59;5076275;28;20199;-72
2022/11/01 05:22:59;;;;;;;0.80;0.80;;;;;;;13.57;100.00;100842.69;5076876;28;20208;-72
2022/11/01 05:25:26;;;;;;;0.85;0.85;;;;;;;13.46;100.00;100836.44;5041949;28;20293;-72
2022/11/01 05:27:59;;;;;;;1.00;1.00;;;;;;;13.61;100.00;100845.38;5076846;28;20607;-72
2022/11/01 05:30:27;;;;;;;0.90;0.90;;;;;;;13.62;100.00;100851.47;5074930;28;20209;-72
2022/11/01 05:32:58;;;;;;;0.80;0.80;;;;;;;13.67;100.00;100849.78;5076392;28;20201;-72
2022/11/01 05:35:26;;;;;;;0.80;0.80;;;;;;;13.56;100.00;100851.34;5076322;28;20343;-72
2022/11/01 05:37:52;;;;;;;2.45;2.25;;;;;;;13.29;100.00;100816.22;5075310;28;20659;-73
2022/11/01 05:40:19;;;;;;;0.70;0.70;;;;;;;13.56;100.00;100846.16;5076099;28;20198;-71
2022/11/01 05:42:46;;;;;;;0.90;0.90;;;;;;;13.72;100.00;100858.56;5081120;28;20198;-71
2022/11/01 05:45:13;;;;;;;1.83;1.38;;;;;;;13.73;100.00;100860.31;5078966;28;20681;-72
2022/11/01 05:47:42;;;;;;;0.98;0.98;;;;;;;13.91;100.00;100865.81;5073617;28;20230;-72
2022/11/01 05:50:11;;;;;;;0.70;0.70;;;;;;;13.94;100.00;100865.84;5076131;28;20666;-73
2022/11/01 05:52:38;;;;;;;0.70;0.70;;;;;;;13.87;100.00;100869.22;5076576;28;20563;-73
2022/11/01 05:55:06;;;;;;;0.80;0.80;;;;;;;13.83;100.00;100852.66;5072991;28;20207;-72
2022/11/01 05:57:33;;;;;;;0.70;0.70;;;;;;;13.96;100.00;100877.16;5076512;28;20218;-72
2022/11/01 06:00:00;;;;;;;0.90;0.90;;;;;;;13.84;100.00;100864.81;5074920;28;20211;-72
2022/11/01 06:02:27;;;;;;;0.90;0.90;;;;;;;13.94;100.00;100881.50;5074628;28;20218;-72
2022/11/01 06:04:55;;;;;;;0.90;0.90;;;;;;;13.88;100.00;100873.56;5076196;28;20207;-73
2022/11/01 06:07:24;;;;;;;0.70;0.70;;;;;;;13.44;100.00;100830.34;5075254;28;20234;-73
2022/11/01 06:09:51;;;;;;;0.80;0.80;;;;;;;13.89;100.00;100880.53;5077033;28;20201;-74
2022/11/01 06:12:17;;;;;;;1.05;1.05;;;;;;;14.38;100.00;100890.78;5080098;28;20210;-73
2022/11/01 06:14:44;;;;;;;1.05;1.05;;;;;;;14.37;100.00;100886.47;5043218;28;20214;-72
2022/11/01 06:17:12;;;;;;;0.70;0.70;;;;;;;14.39;100.00;100894.28;5078930;28;20197;-75
2022/11/01 06:19:39;;;;;;;1.00;1.00;;;;;;;14.31;100.00;100914.13;5072581;28;20222;-73
2022/11/01 06:22:07;;;;;;;1.02;1.02;;;;;;;14.54;100.00;100922.31;5066830;28;20206;-72
2022/11/01 06:24:34;;;;;;;0.73;0.73;;;;;;;14.21;100.00;100881.84;5071142;28;20577;-72
2022/11/01 06:27:01;;;;;;;0.70;0.70;;;;;;;14.42;100.00;100901.25;5036955;28;20202;-75
2022/11/01 06:29:27;;;;;;;0.82;0.82;;;;;;;14.49;100.00;100903.09;5057215;28;20208;-71
2022/11/01 06:31:55;;;;;;;0.90;0.90;;;;;;;14.61;100.00;100924.13;5071775;28;20229;-71
2022/11/01 06:34:22;;;;;;;0.80;0.80;;;;;;;14.62;100.00;100933.72;5071023;28;20197;-70
2022/11/01 06:36:48;;;;;;;0.88;0.88;;;;;;;14.63;100.00;100933.72;5071251;28;20203;-71
2022/11/01 06:39:17;;;;;;;0.70;0.70;;;;;;;14.77;100.00;100932.16;5070748;28;20257;-72
2022/11/01 06:41:44;;;;;;;0.70;0.70;;;;;;;14.70;100.00;100930.31;5076115;28;20705;-74
2022/11/01 06:44:10;;;;;;;0.80;0.80;;;;;;;14.85;100.00;100932.25;5074925;28;20195;-71
2022/11/01 06:46:37;;;;;;;3.42;3.17;;;;;;;14.90;100.00;100922.75;5069831;28;20214;-71
2022/11/01 06:49:04;;;;;;;0.70;0.70;;;;;;;15.01;100.00;100936.78;5070534;28;20246;-72
2022/11/01 06:51:31;;;;;;;0.73;0.73;;;;;;;15.12;100.00;100940.41;5034628;28;20226;-72
2022/11/01 06:53:58;;;;;;;0.95;0.95;;;;;;;15.25;100.00;100939.66;5062970;28;20584;-71
2022/11/01 06:56:26;;;;;;;0.82;0.82;;;;;;;15.24;100.00;100939.63;5070425;28;20218;-72
2022/11/01 06:58:52;;;;;;;1.00;1.00;;;;;;;15.17;100.00;100943.91;5069894;28;20741;-71
2022/11/01 07:01:20;;;;;;;0.80;0.80;;;;;;;15.18;100.00;100903.00;5060933;28;20586;-73
2022/11/01 07:03:50;;;;;;;1.40;1.40;;;;;;;15.35;100.00;100930.16;5051594;28;20203;-73
2022/11/01 07:06:17;;;;;;;2.25;2.05;;;;;;;15.12;100.00;100905.56;5069947;28;20206;-73
2022/11/01 07:08:44;;;;;;;0.70;0.70;;;;;;;15.54;100.00;100933.84;5056077;28;20227;-75
2022/11/01 07:11:10;;;;;;;0.88;0.88;;;;;;;15.65;100.00;100937.41;5063854;28;20926;-74
2022/11/01 07:13:39;;;;;;;0.70;0.70;;;;;;;15.83;100.00;100942.81;5062857;28;20198;-73
2022/11/01 07:16:06;;;;;;;0.60;0.60;;;;;;;15.67;100.00;100935.69;5070025;28;20202;-73
2022/11/01 07:18:33;;;;;;;0.60;0.60;;;;;;;14.95;100.00;100834.84;5059101;28;20207;-73
2022/11/01 07:21:02;;;;;;;0.90;0.90;;;;;;;15.70;100.00;100925.25;5053222;28;20202;-74
2022/11/01 07:23:29;;;;;;;0.70;0.70;;;;;;;15.70;100.00;100936.59;5070331;28;20194;-73
2022/11/01 07:25:56;;;;;;;0.80;0.80;;;;;;;15.64;100.00;100940.91;5056092;28;20199;-73
2022/11/01 07:28:24;;;;;;;0.90;0.90;;;;;;;15.45;100.00;100933.72;5069983;28;20223;-73
2022/11/01 07:30:53;;;;;;;0.80;0.80;;;;;;;15.26;100.00;100883.94;5069837;28;20202;-73
2022/11/01 07:33:20;;;;;;;0.80;0.80;;;;;;;15.65;100.00;100953.09;5070169;28;20207;-72
2022/11/01 07:35:48;;;;;;;1.00;1.00;;;;;;;15.67;100.00;100935.69;5065849;28;20207;-73
2022/11/01 07:38:15;;;;;;;0.85;0.85;;;;;;;15.63;100.00;100937.41;5049796;28;20203;-72
2022/11/01 07:40:43;;;;;;;1.10;1.10;;;;;;;15.67;100.00;100946.16;5049913;28;20207;-72
2022/11/01 07:43:10;;;;;;;0.80;0.80;;;;;;;15.61;100.00;100926.06;5050015;28;20250;-73
2022/11/01 07:45:37;;;;;;;1.17;1.17;;;;;;;15.81;100.00;100929.69;5049957;28;20203;-73
2022/11/01 07:48:09;;;;;;;1.05;1.05;;;;;;;16.05;100.00;100941.22;5049860;28;20231;-73
2022/11/01 07:50:36;;;;;;;0.70;0.70;;;;;;;15.56;100.00;100858.91;5049768;28;20228;-73
2022/11/01 07:53:05;;;;;;;0.98;0.98;;;;;;;16.13;100.00;100943.00;5049796;28;20202;-73
2022/11/01 07:55:32;;;;;;;0.65;0.65;;;;;;;15.98;100.00;100915.88;5050097;28;20725;-73
2022/11/01 07:57:59;;;;;;;0.98;0.98;;;;;;;16.17;100.00;100943.88;5052420;28;20219;-72
2022/11/01 08:00:26;;;;;;;0.70;0.70;;;;;;;16.40;100.00;100946.66;5053543;28;20204;-72
2022/11/01 08:02:59;;;;;;;0.80;0.80;;;;;;;16.29;100.00;100944.84;5053761;28;20206;-72
2022/11/01 08:05:27;;;;;;;2.75;2.55;;;;;;;16.54;100.00;100940.59;5053394;28;20207;-72
2022/11/01 08:07:54;;;;;;;5.82;2.67;;;;;;;16.33;100.00;100936.16;5053511;28;20726;-73
2022/11/01 08:10:21;;;;;;;0.93;0.93;;;;;;;16.32;100.00;100943.97;5053347;28;20196;-72
2022/11/01 08:12:47;;;;;;;0.80;0.80;;;;;;;16.34;100.00;100937.88;5053493;28;20196;-72
2022/11/01 08:15:14;;;;;;;1.05;1.05;;;;;;;16.53;100.00;100940.59;5053437;28;20195;-72
2022/11/01 08:17:41;;;;;;;1.05;1.05;;;;;;;16.71;100.00;100932.84;5053242;28;20231;-72
2022/11/01 08:20:09;;;;;;;1.00;1.00;;;;;;;16.68;100.00;100898.78;5053159;28;20207;-72
2022/11/01 08:22:40;;;;;;;0.95;0.95;;;;;;;17.09;100.00;100941.69;5053224;28;20203;-73
2022/11/01 08:25:08;;;;;;;0.80;0.80;;;;;;;16.98;100.00;100911.13;5034617;28;20219;-71
2022/11/01 08:27:34;;;;;;;0.80;0.80;;;;;;;17.17;100.00;100932.09;5053396;28;20222;-71
2022/11/01 08:30:01;;;;;;;0.80;0.80;;;;;;;17.18;100.00;100931.25;5053111;28;20212;-72
2022/11/01 08:32:28;;;;;;;1.83;1.73;;;;;;;17.35;100.00;100944.34;5053162;28;20204;-71
2022/11/01 08:34:55;;;;;;;0.90;0.90;;;;;;;17.52;100.00;100932.13;5053100;28;20702;-71
2022/11/01 08:37:22;;;;;;;1.05;1.05;;;;;;;17.64;100.00;100934.81;5052864;28;20199;-71
2022/11/01 08:39:50;;;;;;;0.93;0.93;;;;;;;17.67;99.27;100918.19;5053296;28;20246;-71
2022/11/01 08:42:17;;;;;;;4.32;1.45;;;;;;;17.73;98.53;100932.16;5052653;28;20667;-72
2022/11/01 08:44:44;;;;;;;1.23;1.23;;;;;;;17.87;98.56;100933.91;5053184;28;20199;-71
2022/11/01 08:47:10;;;;;;;0.90;0.90;;;;;;;17.96;99.06;100932.16;5052821;28;20204;-71
2022/11/01 08:49:37;;;;;;;0.73;0.73;;;;;;;18.06;96.64;100931.25;5052891;28;20231;-71
2022/11/01 08:52:05;;;;;;;0.73;0.73;;;;;;;18.12;97.27;100940.88;5052604;28;20235;-72
2022/11/01 08:54:31;;;;;;;1.10;1.10;;;;;;;18.21;96.88;100928.59;5050635;28;20200;-71
2022/11/01 08:57:00;;;;;;;0.70;0.70;;;;;;;18.33;97.29;100931.19;5052814;28;20195;-71
2022/11/01 08:59:27;;;;;;;0.80;0.80;;;;;;;18.19;97.00;100919.00;5052624;28;20231;-72
2022/11/01 09:01:54;;;;;;;0.80;0.80;;;;;;;18.13;96.70;100906.72;5052496;28;20200;-72
2022/11/01 09:04:21;;;;;;;2.03;1.00;;;;;;;18.31;95.80;100916.31;5052672;28;20191;-72
2022/11/01 09:06:47;;;;;;;1.05;1.05;;;;;;;18.48;95.22;100929.41;5052521;28;20207;-73
2022/11/01 09:09:14;;;;;;;7.03;2.75;;;;;;;18.63;93.14;100926.72;5051368;28;20637;-72
2022/11/01 09:11:41;;;;;;;1.00;1.00;;;;;;;18.81;93.03;100934.53;5052372;28;20590;-72
2022/11/01 09:14:09;;;;;;;0.60;0.60;;;;;;;18.80;91.85;100909.13;5052388;28;20676;-72
2022/11/01 09:16:36;;;;;;;0.68;0.68;;;;;;;18.96;90.94;100928.31;5033781;28;20199;-72
2022/11/01 09:19:03;;;;;;;0.80;0.80;;;;;;;18.99;91.20;100921.28;5052079;28;20204;-72
2022/11/01 09:21:30;;;;;;;0.90;0.90;;;;;;;19.04;91.14;100916.91;5052327;28;20195;-72
2022/11/01 09:23:57;;;;;;;0.80;0.80;;;;;;;19.18;89.89;100908.91;5052010;28;20204;-72
2022/11/01 09:26:26;;;;;;;0.90;0.90;;;;;;;19.39;89.07;100908.75;5050261;28;20199;-72
2022/11/01 09:28:53;;;;;;;0.70;0.70;;;;;;;19.37;88.53;100910.50;5049979;28;20746;-72
2022/11/01 09:31:22;;;;;;;1.05;1.05;;;;;;;19.59;87.65;100912.13;5052123;28;20689;-72
2022/11/01 09:33:49;;;;;;;0.80;0.80;;;;;;;19.51;86.56;100903.41;5051900;28;20204;-73
2022/11/01 09:36:16;;;;;;;0.80;0.80;;;;;;;19.57;86.11;100908.66;5051749;28;20196;-72
2022/11/01 09:38:42;;;;;;;1.00;1.00;;;;;;;19.81;89.89;100907.53;5051698;28;20679;-71
2022/11/01 09:41:22;;;;;;;0.70;0.70;;;;;;;19.95;83.32;100904.75;5049602;28;20687;-71
2022/11/01 09:43:51;;;;;;;0.85;0.85;;;;;;;19.75;83.43;100876.03;5051845;28;20203;-71
2022/11/01 09:46:27;;;;;;;0.70;0.70;;;;;;;20.07;83.12;100905.53;5051528;28;20690;-71
2022/11/01 09:48:55;;;;;;;0.95;0.95;;;;;;;20.10;81.60;100900.22;5051282;28;20236;-71
2022/11/01 09:51:24;;;;;;;0.85;0.85;;;;;;;20.26;80.07;100900.94;5051563;28;20651;-70
2022/11/01 09:53:53;;;;;;;1.02;1.02;;;;;;;20.11;80.22;100893.19;5016406;28;20671;-70
2022/11/01 09:56:27;;;;;;;0.70;0.70;;;;;;;20.38;79.58;100897.31;5051619;28;20223;-71
2022/11/01 09:59:05;;;;;;;1.00;1.00;;;;;;;20.35;78.91;100894.72;5051363;28;20211;-72
2022/11/01 10:01:47;;;;;;;0.80;0.80;;;;;;;20.58;77.92;100876.88;5055066;28;20230;-73
2022/11/01 10:04:40;;;;;;;1.08;1.08;;;;;;;20.67;76.58;100871.47;5055959;28;20645;-71
2022/11/01 10:07:13;;;;;;;0.90;0.90;;;;;;;20.82;76.16;100887.06;5028516;28;20307;-71
2022/11/01 10:09:52;;;;;;;1.08;1.05;;;;;;;20.49;77.08;100811.09;5028663;28;20231;-71
2022/11/01 10:12:33;;;;;;;0.93;0.93;;;;;;;20.96;75.60;100873.69;5028567;28;20204;-72
2022/11/01 10:15:16;;;;;;;0.90;0.90;;;;;;;21.10;75.74;100884.91;5028556;28;20254;-73
2022/11/01 10:17:49;;;;;;;1.23;1.23;;;;;;;21.21;76.09;100880.38;5008962;28;20209;-72
2022/11/01 10:20:16;;;;;;;1.00;1.00;;;;;;;21.12;76.44;100873.44;5022156;28;20211;-73
2022/11/01 10:22:47;;;;;;;0.70;0.70;;;;;;;21.30;74.75;100868.81;5028474;28;20208;-72
2022/11/01 10:25:20;;;;;;;1.00;1.00;;;;;;;21.70;72.59;100880.41;4979564;28;20200;-72
2022/11/01 10:27:55;;;;;;;0.80;0.80;;;;;;;21.78;73.36;100873.22;4982856;28;20303;-72
2022/11/01 10:30:22;;;;;;;1.02;1.02;;;;;;;21.48;72.86;100876.38;5014897;28;20208;-73
2022/11/01 10:32:56;;;;;;;0.70;0.70;;;;;;;21.82;71.23;100869.66;5028307;28;20215;-72
2022/11/01 10:35:29;;;;;;;0.70;0.70;;;;;;;21.81;71.32;100865.25;5015944;28;20209;-73
2022/11/01 10:38:02;;;;;;;0.85;0.85;;;;;;;21.78;70.84;100854.75;5027441;28;20295;-72
2022/11/01 10:40:36;;;;;;;0.70;0.70;;;;;;;21.76;70.86;100861.81;5012551;28;20207;-72
2022/11/01 10:43:11;;;;;;;7.60;1.77;;;;;;;21.84;70.99;100867.81;5027984;28;20211;-72
2022/11/01 10:45:38;;;;;;;1.15;1.15;;;;;;;21.74;70.63;100871.53;5070452;28;20597;-72
2022/11/01 10:48:06;;;;;;;1.95;1.77;;;;;;;21.66;71.32;100866.41;5070480;28;20198;-72
2022/11/01 10:50:34;;;;;;;1.05;1.05;;;;;;;21.66;70.62;100862.88;5070227;28;20662;-72
2022/11/01 10:53:06;;;;;;;0.80;0.80;;;;;;;22.07;69.28;100859.50;5070060;28;20286;-72
2022/11/01 10:55:39;;;;;;;0.80;0.80;;;;;;;22.06;68.45;100869.22;5070102;28;20194;-73
2022/11/01 10:58:15;;;;;;;1.25;1.23;;;;;;;22.11;67.70;100864.72;5070183;28;20195;-73
2022/11/01 11:00:43;;;;;;;0.82;0.82;;;;;;;21.78;68.30;100838.91;5070571;28;20202;-73
2022/11/01 11:03:19;;;;;;;0.70;0.70;;;;;;;22.10;67.05;100855.03;5069974;28;20251;-72
2022/11/01 11:05:48;;;;;;;0.80;0.80;;;;;;;22.06;66.33;100848.06;5069824;28;20662;-74
2022/11/01 11:08:16;;;;;;;1.00;1.00;;;;;;;22.15;66.33;100832.03;5069934;28;21657;-75
2022/11/01 11:10:45;;;;;;;0.80;0.80;;;;;;;22.24;67.09;100842.44;5069924;28;20210;-76
2022/11/01 11:13:15;;;;;;;1.70;1.70;;;;;;;22.43;65.65;100834.13;5069751;28;20221;-75
2022/11/01 11:15:47;;;;;;;1.20;1.20;;;;;;;22.36;64.94;100836.03;5070138;28;20481;-76
2022/11/01 11:18:23;;;;;;;1.88;1.83;;;;;;;22.30;64.17;100798.25;5070006;28;20203;-73
2022/11/01 11:20:52;;;;;;;0.90;0.90;;;;;;;22.46;64.28;100812.91;5069906;28;20209;-73
2022/11/01 11:23:20;;;;;;;0.82;0.82;;;;;;;22.41;62.44;100793.63;5070595;28;20226;-73
2022/11/01 11:25:49;;;;;;;0.88;0.88;;;;;;;22.70;61.75;100822.94;5056397;28;20234;-73
2022/11/01 11:28:24;;;;;;;0.80;0.80;;;;;;;22.84;61.24;100823.50;5069988;28;20298;-73
2022/11/01 11:30:51;;;;;;;0.90;0.90;;;;;;;22.78;61.08;100806.91;5069566;28;20205;-73
2022/11/01 11:33:20;;;;;;;0.70;0.70;;;;;;;22.93;60.58;100802.16;5061260;28;20261;-74
2022/11/01 11:35:56;;;;;;;1.00;1.00;;;;;;;22.98;58.32;100794.94;5072290;28;20555;-74